Time;durP1;ratioP1;P1;durP2;ratioP2;P2;SDS_P1;SDS_P2;PMS_P1;PMS_P2;Temp;Humidity;BMP_temperature;BMP_pressure;BME280_temperature;BME280_humidity;BME280_pressure;Samples;Min_cycle;Max_cycle;Signal;HPM_P1;HPM_P2
2022/10/02 00:01:47;;;;;;;;;;;;;;;17.26;45.87;100102.19;4952260;28;1222;-50
2022/10/02 00:04:15;;;;;;;;;;;;;;;17.16;46.19;100094.03;4997675;28;1314;-48
2022/10/02 00:06:42;;;;;;;;;;;;;;;17.14;46.05;100087.19;4980308;28;1220;-50
2022/10/02 00:09:09;;;;;;;;;;;;;;;17.09;46.23;100090.84;4979631;28;1220;-48
2022/10/02 00:11:38;;;;;;;;;;;;;;;17.02;45.96;100091.19;4979842;28;1395;-48
2022/10/02 00:14:04;;;;;;;;;;;;;;;17.06;45.92;100103.22;4980337;28;1232;-50
2022/10/02 00:16:32;;;;;;;;;;;;;;;16.96;45.96;100092.38;4979730;28;1248;-51
2022/10/02 00:18:58;;;;;;;;;;;;;;;16.97;45.78;100085.78;4996751;28;1227;-50
2022/10/02 00:21:26;;;;;;;;;;;;;;;17.93;46.97;100070.97;4997198;28;1887;-47
2022/10/02 00:23:53;;;;;;;;;;;;;;;17.45;47.72;100071.94;4997686;28;1735;-49
2022/10/02 00:26:42;;;;;;;;;;;;;;;17.27;47.23;100075.50;4986794;28;1160;-52
2022/10/02 00:29:17;;;;;;;;;;;;;;;17.24;46.62;100082.41;4989188;28;1272;-50
2022/10/02 00:32:09;;;;;;;;;;;;;;;17.20;46.42;100070.38;5017098;28;1508;-49
2022/10/02 00:34:40;;;;;;;;;;;;;;;17.06;46.33;100075.75;5012820;28;1265;-48
2022/10/02 00:37:13;;;;;;;;;;;;;;;17.05;46.01;100068.63;5016783;28;1128;-49
2022/10/02 00:39:38;;;;;;;;;;;;;;;17.87;47.23;100076.84;5016522;28;1899;-52
2022/10/02 00:42:03;;;;;;;;;;;;;;;17.36;47.36;100090.22;5016904;28;1128;-51
2022/10/02 00:44:41;;;;;;;;;;;;;;;17.22;47.09;100094.78;5017289;28;1202;-48
2022/10/02 00:47:09;;;;;;;;;;;;;;;17.22;46.52;100094.78;5016482;28;972;-48
2022/10/02 00:49:44;;;;;;;;;;;;;;;17.07;46.39;100107.63;5016312;28;1092;-49
2022/10/02 00:52:28;;;;;;;;;;;;;;;17.12;46.09;100125.16;4999271;28;1188;-51
2022/10/02 00:55:03;;;;;;;;;;;;;;;17.77;47.44;100136.38;5016593;28;2711;-52
2022/10/02 00:57:40;;;;;;;;;;;;;;;17.34;47.68;100136.41;5016726;28;1136;-51
2022/10/02 01:00:12;;;;;;;;;;;;;;;17.23;47.04;100137.66;5016700;28;1894;-50
2022/10/02 01:02:38;;;;;;;;;;;;;;;17.89;47.69;100124.09;4999256;28;1176;-49
2022/10/02 01:05:04;;;;;;;;;;;;;;;17.46;47.86;100127.75;5016714;28;1108;-49
2022/10/02 01:07:29;;;;;;;;;;;;;;;17.37;47.04;100135.00;4999285;28;1200;-47
2022/10/02 01:09:54;;;;;;;;;;;;;;;17.24;46.61;100140.09;4998894;28;1183;-50
2022/10/02 01:12:20;;;;;;;;;;;;;;;17.15;46.66;100154.78;4998993;28;1147;-49
2022/10/02 01:14:45;;;;;;;;;;;;;;;17.73;47.55;100154.59;5016696;28;1163;-49
2022/10/02 01:17:27;;;;;;;;;;;;;;;17.74;48.10;100153.47;5016948;28;1140;-50
2022/10/02 01:19:53;;;;;;;;;;;;;;;17.49;47.53;100149.16;4986507;28;1898;-46
2022/10/02 01:22:22;;;;;;;;;;;;;;;17.35;47.06;100157.28;4998740;28;1081;-47
2022/10/02 01:24:48;;;;;;;;;;;;;;;17.39;46.19;100158.34;5010947;28;2625;-49
2022/10/02 01:27:14;;;;;;;;;;;;;;;17.23;46.19;100165.13;5016780;28;1097;-46
2022/10/02 01:29:40;;;;;;;;;;;;;;;17.15;46.05;100155.59;5021070;28;1148;-45
2022/10/02 01:32:05;;;;;;;;;;;;;;;17.08;46.03;100155.13;5022818;28;1144;-47
2022/10/02 01:34:31;;;;;;;;;;;;;;;17.07;45.57;100148.81;5022325;28;1168;-49
2022/10/02 01:36:56;;;;;;;;;;;;;;;17.04;45.42;100154.06;5022880;28;1175;-49
2022/10/02 01:39:22;;;;;;;;;;;;;;;17.70;46.38;100160.69;5005378;28;1977;-46
2022/10/02 01:41:47;;;;;;;;;;;;;;;17.51;47.67;100168.91;5005417;28;1171;-47
2022/10/02 01:44:13;;;;;;;;;;;;;;;17.31;47.15;100175.47;5023168;28;1185;-49
2022/10/02 01:46:41;;;;;;;;;;;;;;;17.28;46.62;100189.81;5004792;28;1140;-47
2022/10/02 01:49:07;;;;;;;;;;;;;;;17.12;46.20;100185.59;5022620;28;1037;-49
2022/10/02 01:51:51;;;;;;;;;;;;;;;17.54;47.15;100189.47;5022170;28;1124;-50
2022/10/02 01:54:25;;;;;;;;;;;;;;;17.70;47.88;100185.44;5022664;28;1861;-47
2022/10/02 01:56:53;;;;;;;;;;;;;;;17.42;47.42;100154.19;5022354;28;1108;-49
2022/10/02 01:59:48;;;;;;;;;;;;;;;17.28;47.02;100140.34;5004556;28;1902;-46
2022/10/02 02:02:32;;;;;;;;;;;;;;;17.23;46.07;100141.19;4999847;28;1176;-47
2022/10/02 02:04:58;;;;;;;;;;;;;;;17.18;45.79;100154.19;5005207;28;1195;-48
2022/10/02 02:07:34;;;;;;;;;;;;;;;17.81;47.09;100127.53;5022448;28;1072;-49
2022/10/02 02:10:02;;;;;;;;;;;;;;;17.36;47.13;100119.63;5005054;28;1180;-48
2022/10/02 02:12:34;;;;;;;;;;;;;;;17.24;46.86;100111.81;5022400;28;1179;-48
2022/10/02 02:15:01;;;;;;;;;;;;;;;17.23;46.33;100107.44;5022673;28;1073;-48
2022/10/02 02:17:29;;;;;;;;;;;;;;;17.12;45.61;100075.69;5004581;28;1128;-47
2022/10/02 02:19:58;;;;;;;;;;;;;;;17.08;45.60;100068.06;5005226;28;1910;-51
2022/10/02 02:22:25;;;;;;;;;;;;;;;17.10;45.34;100049.34;5022124;28;1171;-51
2022/10/02 02:24:51;;;;;;;;;;;;;;;17.06;45.20;100031.81;5022654;28;2116;-50
2022/10/02 02:27:18;;;;;;;;;;;;;;;17.62;46.14;100027.44;5004692;28;1363;-52
2022/10/02 02:29:45;;;;;;;;;;;;;;;17.60;47.14;100010.44;5022239;28;1185;-45
2022/10/02 02:32:12;;;;;;;;;;;;;;;17.27;46.91;100004.06;5005233;28;1120;-49
2022/10/02 02:34:39;;;;;;;;;;;;;;;17.20;46.18;99948.69;5004459;28;1116;-50
2022/10/02 02:37:05;;;;;;;;;;;;;;;17.95;47.21;99936.72;5004945;28;1113;-50
2022/10/02 02:39:39;;;;;;;;;;;;;;;17.52;47.19;99958.06;5004366;28;1906;-48
2022/10/02 02:42:05;;;;;;;;;;;;;;;17.28;46.97;99981.78;5001676;28;1179;-47
2022/10/02 02:44:31;;;;;;;;;;;;;;;17.21;46.21;99956.63;5001835;28;1156;-48
2022/10/02 02:47:22;;;;;;;;;;;;;;;17.20;45.75;99949.47;5018422;28;895;-49
2022/10/02 02:49:56;;;;;;;;;;;;;;;17.09;45.48;99981.78;4985592;28;1229;-47
2022/10/02 02:52:24;;;;;;;;;;;;;;;17.05;45.36;100007.38;5001645;28;1143;-50
2022/10/02 02:54:52;;;;;;;;;;;;;;;17.06;45.14;100036.50;5018932;28;2412;-45
2022/10/02 02:57:18;;;;;;;;;;;;;;;17.35;45.94;100060.28;5018887;28;1104;-49
2022/10/02 02:59:44;;;;;;;;;;;;;;;17.65;47.32;100074.72;5001434;28;1976;-48
2022/10/02 03:02:10;;;;;;;;;;;;;;;17.26;47.40;100082.09;4987559;28;990;-47
2022/10/02 03:04:35;;;;;;;;;;;;;;;17.22;46.50;100070.06;5018940;28;1144;-49
2022/10/02 03:07:01;;;;;;;;;;;;;;;17.15;46.06;100083.34;5019084;28;1169;-49
2022/10/02 03:09:26;;;;;;;;;;;;;;;17.43;46.56;100089.84;5000970;28;1124;-44
2022/10/02 03:12:04;;;;;;;;;;;;;;;17.64;47.10;100084.06;5000951;28;1036;-48
2022/10/02 03:14:41;;;;;;;;;;;;;;;17.40;46.87;100090.44;5018234;28;1096;-50
2022/10/02 03:17:10;;;;;;;;;;;;;;;17.19;46.57;100078.91;5018073;28;1135;-44
2022/10/02 03:19:41;;;;;;;;;;;;;;;17.12;45.95;100070.22;5018157;28;1983;-48
2022/10/02 03:22:25;;;;;;;;;;;;;;;17.51;46.71;100058.94;5018505;28;1144;-48
2022/10/02 03:25:09;;;;;;;;;;;;;;;17.43;47.27;100057.69;5015080;28;2436;-48
2022/10/02 03:27:36;;;;;;;;;;;;;;;17.29;46.89;100078.75;5018250;28;1238;-52
2022/10/02 03:30:03;;;;;;;;;;;;;;;17.19;46.05;100070.66;5001077;28;1156;-51
2022/10/02 03:32:28;;;;;;;;;;;;;;;17.12;45.89;100068.28;5001062;28;1203;-49
2022/10/02 03:34:55;;;;;;;;;;;;;;;17.07;45.58;100080.16;5000196;28;1124;-52
2022/10/02 03:37:22;;;;;;;;;;;;;;;17.16;45.76;100074.81;5000813;28;1112;-48
2022/10/02 03:39:47;;;;;;;;;;;;;;;17.64;46.63;100054.63;5000677;28;1976;-55
2022/10/02 03:42:13;;;;;;;;;;;;;;;17.32;46.72;100072.69;5018386;28;1105;-57
2022/10/02 03:44:38;;;;;;;;;;;;;;;17.12;46.34;100097.69;5018152;28;1124;-55
2022/10/02 03:47:04;;;;;;;;;;;;;;;17.06;46.27;100107.91;5017509;28;1219;-57
2022/10/02 03:49:29;;;;;;;;;;;;;;;17.77;47.05;100130.88;5018178;28;1156;-58
2022/10/02 03:51:55;;;;;;;;;;;;;;;17.35;47.17;100137.22;5017323;28;1136;-57
2022/10/02 03:54:20;;;;;;;;;;;;;;;17.17;46.90;100131.41;5017793;28;2719;-58
2022/10/02 03:56:53;;;;;;;;;;;;;;;17.17;45.97;100133.34;5000499;28;1143;-50
2022/10/02 03:59:39;;;;;;;;;;;;;;;17.11;45.97;100140.81;4988087;28;1906;-55
2022/10/02 04:02:06;;;;;;;;;;;;;;;17.18;45.23;100166.00;5016604;28;1158;-51
2022/10/02 04:04:37;;;;;;;;;;;;;;;17.55;46.64;100152.63;5017422;28;1386;-54
2022/10/02 04:07:03;;;;;;;;;;;;;;;17.62;47.66;100164.91;5001084;28;1008;-55
2022/10/02 04:09:29;;;;;;;;;;;;;;;17.34;47.20;100188.63;4999552;28;1088;-55
2022/10/02 04:11:58;;;;;;;;;;;;;;;17.15;46.82;100194.03;5017642;28;1136;-53
2022/10/02 04:14:32;;;;;;;;;;;;;;;17.14;46.30;100203.41;5017423;28;1109;-50
2022/10/02 04:17:05;;;;;;;;;;;;;;;17.87;46.94;100200.63;4999786;28;1120;-54
2022/10/02 04:19:57;;;;;;;;;;;;;;;17.58;47.88;100196.84;5000239;28;1914;-53
2022/10/02 04:22:35;;;;;;;;;;;;;;;17.37;46.98;100182.53;5012731;28;1361;-54
2022/10/02 04:25:04;;;;;;;;;;;;;;;17.55;47.53;100175.44;5017344;28;1758;-54
2022/10/02 04:27:37;;;;;;;;;;;;;;;17.71;47.83;100183.50;5005302;28;1112;-54
2022/10/02 04:30:04;;;;;;;;;;;;;;;17.40;47.36;100179.22;5017186;28;1159;-54
2022/10/02 04:32:31;;;;;;;;;;;;;;;17.29;46.88;100188.66;4999779;28;1141;-53
2022/10/02 04:34:57;;;;;;;;;;;;;;;17.30;46.10;100189.50;5017029;28;1255;-54
2022/10/02 04:37:28;;;;;;;;;;;;;;;17.15;46.04;100183.06;5016809;28;1163;-52
2022/10/02 04:40:01;;;;;;;;;;;;;;;17.06;46.11;100179.34;5016065;28;1981;-52
2022/10/02 04:42:30;;;;;;;;;;;;;;;17.12;46.08;100188.34;5000709;28;1279;-52
2022/10/02 04:44:59;;;;;;;;;;;;;;;17.42;47.48;100168.75;5010614;28;1185;-48
2022/10/02 04:47:33;;;;;;;;;;;;;;;17.22;48.05;100188.22;5007945;28;1029;-51
2022/10/02 04:49:59;;;;;;;;;;;;;;;17.21;47.20;100178.34;5016854;28;1001;-52
2022/10/02 04:52:42;;;;;;;;;;;;;;;17.59;48.33;100184.75;5017016;28;1120;-48
2022/10/02 04:55:22;;;;;;;;;;;;;;;17.61;48.68;100189.94;5017114;28;2277;-51
2022/10/02 04:58:06;;;;;;;;;;;;;;;17.38;47.79;100186.94;4986711;28;1171;-52
2022/10/02 05:00:41;;;;;;;;;;;;;;;17.26;46.77;100187.34;5016873;28;1985;-44
2022/10/02 05:03:07;;;;;;;;;;;;;;;17.22;46.42;100193.69;4982174;28;1157;-50
2022/10/02 05:05:47;;;;;;;;;;;;;;;17.11;46.30;100187.53;5016917;28;1137;-51
2022/10/02 05:08:34;;;;;;;;;;;;;;;17.08;46.10;100180.69;4998669;28;1359;-52
2022/10/02 05:11:03;;;;;;;;;;;;;;;16.99;46.22;100201.63;4999620;28;1167;-51
2022/10/02 05:13:31;;;;;;;;;;;;;;;17.73;47.90;100195.84;5016000;28;1117;-50
2022/10/02 05:16:03;;;;;;;;;;;;;;;17.36;47.58;100183.66;5016219;28;1265;-49
2022/10/02 05:18:43;;;;;;;;;;;;;;;17.24;46.97;100177.75;5014557;28;1355;-52
2022/10/02 05:21:25;;;;;;;;;;;;;;;17.22;46.23;100182.72;5015066;28;1979;-50
2022/10/02 05:24:09;;;;;;;;;;;;;;;17.67;47.38;100188.78;5004237;28;1410;-49
2022/10/02 05:26:55;;;;;;;;;;;;;;;17.45;47.53;100187.38;5009690;28;1216;-52
2022/10/02 05:29:23;;;;;;;;;;;;;;;17.28;47.00;100204.34;5013957;28;1551;-49
2022/10/02 05:31:52;;;;;;;;;;;;;;;17.27;46.63;100201.91;5006536;28;1327;-50
2022/10/02 05:34:23;;;;;;;;;;;;;;;17.22;45.96;100194.53;5010775;28;1282;-48
2022/10/02 05:37:03;;;;;;;;;;;;;;;17.16;45.98;100183.91;5011633;28;1142;-49
2022/10/02 05:39:36;;;;;;;;;;;;;;;18.32;44.75;100187.31;4999033;28;1902;-52
2022/10/02 05:42:05;;;;;;;;;;;;;;;17.77;46.65;100194.13;4983925;28;1216;-47
2022/10/02 05:44:36;;;;;;;;;;;;;;;17.54;47.65;100184.00;5011039;28;1174;-49
2022/10/02 05:47:14;;;;;;;;;;;;;;;17.39;48.40;100177.56;5000924;28;1454;-48
2022/10/02 05:49:42;;;;;;;;;;;;;;;17.29;49.18;100172.19;5009162;28;1276;-48
2022/10/02 05:52:12;;;;;;;;;;;;;;;17.17;49.97;100177.31;5010726;28;1375;-49
2022/10/02 05:54:54;;;;;;;;;;;;;;;17.08;50.20;100183.44;4992522;28;1200;-49
2022/10/02 05:57:23;;;;;;;;;;;;;;;17.02;50.75;100183.78;4983545;28;1303;-49
2022/10/02 05:59:51;;;;;;;;;;;;;;;16.99;51.28;100187.91;5015540;28;1984;-47
2022/10/02 06:02:23;;;;;;;;;;;;;;;16.96;51.44;100184.91;5015891;28;1080;-51
2022/10/02 06:04:53;;;;;;;;;;;;;;;16.86;52.11;100177.59;4996046;28;1177;-49
2022/10/02 06:07:18;;;;;;;;;;;;;;;16.81;52.11;100177.63;4992375;28;1459;-50
2022/10/02 06:09:45;;;;;;;;;;;;;;;16.72;52.74;100169.22;5003891;28;1227;-46
2022/10/02 06:12:16;;;;;;;;;;;;;;;16.73;52.95;100163.44;5015935;28;1175;-51
2022/10/02 06:14:44;;;;;;;;;;;;;;;16.66;53.35;100153.88;5012568;28;1159;-48
2022/10/02 06:17:26;;;;;;;;;;;;;;;16.65;53.44;100169.53;5019088;28;1279;-52
2022/10/02 06:20:07;;;;;;;;;;;;;;;16.58;53.50;100180.03;5019386;28;1978;-48
2022/10/02 06:22:41;;;;;;;;;;;;;;;16.54;53.94;100173.50;4998600;28;1315;-49
2022/10/02 06:25:09;;;;;;;;;;;;;;;16.54;53.99;100168.00;5012320;28;865;-49
2022/10/02 06:27:37;;;;;;;;;;;;;;;16.50;54.40;100158.72;5019494;28;1280;-49
2022/10/02 06:30:08;;;;;;;;;;;;;;;16.49;54.84;100155.13;5014877;28;974;-52
2022/10/02 06:32:44;;;;;;;;;;;;;;;16.43;54.88;100162.59;4993940;28;1530;-52
2022/10/02 06:35:14;;;;;;;;;;;;;;;16.40;54.83;100146.69;4993718;28;1247;-51
2022/10/02 06:37:47;;;;;;;;;;;;;;;16.34;55.14;100164.31;5012526;28;1206;-52
2022/10/02 06:40:32;;;;;;;;;;;;;;;16.30;55.12;100151.44;5014433;28;1969;-53
2022/10/02 06:43:00;;;;;;;;;;;;;;;16.27;55.11;100152.03;5009861;28;1247;-52
2022/10/02 06:45:44;;;;;;;;;;;;;;;16.23;55.22;100155.34;5011671;28;1427;-51
2022/10/02 06:48:20;;;;;;;;;;;;;;;16.23;55.41;100165.50;4995723;28;1235;-49
2022/10/02 06:50:48;;;;;;;;;;;;;;;16.14;55.75;100169.97;5015197;28;1397;-52
2022/10/02 06:53:29;;;;;;;;;;;;;;;16.15;55.51;100179.84;5010416;28;1250;-47
2022/10/02 06:56:00;;;;;;;;;;;;;;;16.12;55.55;100172.16;5012914;28;1065;-53
2022/10/02 06:58:34;;;;;;;;;;;;;;;16.09;55.69;100170.81;5002018;28;1195;-58
2022/10/02 07:01:00;;;;;;;;;;;;;;;16.98;54.59;100172.53;5018608;28;1906;-56
2022/10/02 07:03:38;;;;;;;;;;;;;;;17.30;54.08;100176.56;5018614;28;1180;-54
2022/10/02 07:06:15;;;;;;;;;;;;;;;16.69;55.97;100170.59;5018638;28;1151;-57
2022/10/02 07:08:43;;;;;;;;;;;;;;;16.47;56.03;100167.53;5001478;28;1100;-58
2022/10/02 07:11:15;;;;;;;;;;;;;;;16.46;56.19;100171.38;5012825;28;1248;-56
2022/10/02 07:13:52;;;;;;;;;;;;;;;16.36;56.04;100173.06;5016703;28;1323;-58
2022/10/02 07:16:33;;;;;;;;;;;;;;;16.34;55.92;100163.50;5006833;28;1285;-55
2022/10/02 07:19:17;;;;;;;;;;;;;;;16.26;56.13;100167.69;5017259;28;1244;-57
2022/10/02 07:21:49;;;;;;;;;;;;;;;16.20;56.18;100163.31;5016126;28;1934;-55
2022/10/02 07:24:33;;;;;;;;;;;;;;;16.20;56.11;100152.34;5014396;28;1153;-57
2022/10/02 07:26:59;;;;;;;;;;;;;;;16.14;56.17;100150.75;5015100;28;1442;-57
2022/10/02 07:29:30;;;;;;;;;;;;;;;17.08;55.41;100160.63;5014033;28;1327;-57
2022/10/02 07:32:00;;;;;;;;;;;;;;;17.04;55.67;100165.06;5015378;28;1215;-57
2022/10/02 07:34:32;;;;;;;;;;;;;;;16.61;56.71;100165.75;4990015;28;1415;-56
2022/10/02 07:37:26;;;;;;;;;;;;;;;16.55;56.64;100169.63;5010709;28;1430;-55
2022/10/02 07:40:11;;;;;;;;;;;;;;;16.43;56.65;100164.53;5004319;28;1906;-57
2022/10/02 07:42:46;;;;;;;;;;;;;;;16.33;56.77;100165.44;5010239;28;1398;-57
2022/10/02 07:45:30;;;;;;;;;;;;;;;16.30;56.68;100168.75;5011102;28;1358;-57
2022/10/02 07:48:17;;;;;;;;;;;;;;;16.27;56.64;100174.81;5010582;28;1624;-57
2022/10/02 07:50:52;;;;;;;;;;;;;;;16.22;56.52;100183.06;4991004;28;1379;-56
2022/10/02 07:53:17;;;;;;;;;;;;;;;16.15;56.31;100185.31;4993808;28;1103;-56
2022/10/02 07:55:43;;;;;;;;;;;;;;;16.16;56.43;100200.66;5013705;28;1201;-56
2022/10/02 07:58:09;;;;;;;;;;;;;;;16.68;56.31;100201.91;4990712;28;1355;-55
2022/10/02 08:00:36;;;;;;;;;;;;;;;17.26;55.55;100201.09;4998828;28;1906;-56
2022/10/02 08:03:15;;;;;;;;;;;;;;;16.69;56.64;100203.56;4980656;28;1157;-57
2022/10/02 08:05:44;;;;;;;;;;;;;;;16.54;56.97;100195.44;5012244;28;1309;-53
2022/10/02 08:08:19;;;;;;;;;;;;;;;16.43;57.01;100200.19;5017169;28;1196;-53
2022/10/02 08:10:46;;;;;;;;;;;;;;;16.40;56.57;100193.34;4993157;28;1051;-54
2022/10/02 08:13:38;;;;;;;;;;;;;;;16.39;56.59;100194.44;4994844;28;1529;-56
2022/10/02 08:16:04;;;;;;;;;;;;;;;16.35;56.83;100181.59;5010788;28;1206;-57
2022/10/02 08:18:48;;;;;;;;;;;;;;;16.28;56.63;100178.38;5006720;28;1183;-55
2022/10/02 08:21:15;;;;;;;;;;;;;;;16.27;56.54;100183.03;5017281;28;1979;-56
2022/10/02 08:23:48;;;;;;;;;;;;;;;16.20;56.78;100172.38;5016610;28;1097;-58
2022/10/02 08:26:16;;;;;;;;;;;;;;;16.21;56.53;100181.44;5017218;28;896;-57
2022/10/02 08:28:43;;;;;;;;;;;;;;;16.17;56.88;100166.66;5015134;28;1489;-58
2022/10/02 08:31:09;;;;;;;;;;;;;;;17.40;55.82;100164.66;5015755;28;996;-59
2022/10/02 08:33:35;;;;;;;;;;;;;;;16.96;56.92;100180.25;5006338;28;1312;-58
2022/10/02 08:36:17;;;;;;;;;;;;;;;16.67;57.24;100166.50;5014464;28;1200;-58
2022/10/02 08:38:44;;;;;;;;;;;;;;;16.55;57.25;100181.44;5014833;28;1286;-58
2022/10/02 08:41:28;;;;;;;;;;;;;;;16.46;57.28;100180.41;5008727;28;1918;-59
2022/10/02 08:44:04;;;;;;;;;;;;;;;16.43;57.40;100173.56;5012579;28;1308;-59
2022/10/02 08:46:57;;;;;;;;;;;;;;;16.35;57.17;100187.91;5016798;28;1084;-59
2022/10/02 08:49:51;;;;;;;;;;;;;;;16.35;57.14;100204.34;4973280;28;1162;-58
2022/10/02 08:52:17;;;;;;;;;;;;;;;16.32;57.05;100199.44;4928194;28;1206;-59
2022/10/02 08:54:44;;;;;;;;;;;;;;;16.22;57.16;100199.53;5014558;28;1117;-59
2022/10/02 08:57:15;;;;;;;;;;;;;;;16.24;56.83;100214.59;5017133;28;1152;-59
2022/10/02 08:59:46;;;;;;;;;;;;;;;16.16;57.16;100214.38;5017008;28;1902;-58
2022/10/02 09:02:31;;;;;;;;;;;;;;;16.20;56.79;100212.69;5016545;28;922;-59
2022/10/02 09:05:03;;;;;;;;;;;;;;;17.49;56.04;100214.28;5016052;28;1049;-60
2022/10/02 09:07:41;;;;;;;;;;;;;;;16.82;57.44;100206.75;5016731;28;1175;-59
2022/10/02 09:10:25;;;;;;;;;;;;;;;16.56;58.02;100216.03;5014427;28;1240;-57
2022/10/02 09:12:57;;;;;;;;;;;;;;;16.53;57.61;100193.81;5001535;28;1288;-58
2022/10/02 09:15:34;;;;;;;;;;;;;;;16.42;57.68;100209.53;5015689;28;1347;-57
2022/10/02 09:18:15;;;;;;;;;;;;;;;16.34;57.55;100200.00;5011381;28;1275;-57
2022/10/02 09:20:42;;;;;;;;;;;;;;;16.36;57.37;100202.44;5016632;28;1906;-59
2022/10/02 09:23:23;;;;;;;;;;;;;;;16.31;57.34;100203.28;5016589;28;1069;-58
2022/10/02 09:25:52;;;;;;;;;;;;;;;16.25;57.37;100194.28;4995207;28;1310;-56
2022/10/02 09:28:36;;;;;;;;;;;;;;;16.25;57.15;100182.50;5007854;28;1213;-59
2022/10/02 09:31:11;;;;;;;;;;;;;;;16.23;57.23;100192.94;5014995;28;1219;-58
2022/10/02 09:33:55;;;;;;;;;;;;;;;16.19;57.04;100192.69;5003652;28;1414;-57
2022/10/02 09:36:28;;;;;;;;;;;;;;;16.19;57.06;100194.63;5016499;28;1152;-57
2022/10/02 09:38:57;;;;;;;;;;;;;;;16.13;56.86;100215.78;5012517;28;1343;-58
2022/10/02 09:41:31;;;;;;;;;;;;;;;16.15;57.01;100207.25;5000299;28;1906;-57
2022/10/02 09:44:06;;;;;;;;;;;;;;;17.00;56.99;100214.28;5005874;28;1179;-58
2022/10/02 09:46:46;;;;;;;;;;;;;;;17.01;57.60;100204.09;4988467;28;1167;-58
2022/10/02 09:49:20;;;;;;;;;;;;;;;16.64;57.93;100208.28;4997478;28;1200;-59
2022/10/02 09:52:00;;;;;;;;;;;;;;;16.53;57.63;100204.78;5004084;28;1177;-58
2022/10/02 09:54:56;;;;;;;;;;;;;;;16.46;57.47;100215.28;5016600;28;1264;-58
2022/10/02 09:57:30;;;;;;;;;;;;;;;16.39;57.50;100199.94;4995999;28;1451;-59
2022/10/02 09:59:57;;;;;;;;;;;;;;;16.35;57.45;100190.63;5015744;28;1968;-59
2022/10/02 10:02:25;;;;;;;;;;;;;;;16.32;57.22;100184.91;5016033;28;1306;-58
2022/10/02 10:04:51;;;;;;;;;;;;;;;16.26;57.40;100200.59;5013580;28;1211;-58
2022/10/02 10:07:34;;;;;;;;;;;;;;;16.24;57.28;100205.53;5010384;28;1255;-58
2022/10/02 10:10:19;;;;;;;;;;;;;;;16.41;57.53;100216.94;5010038;28;1172;-59
2022/10/02 10:12:48;;;;;;;;;;;;;;;17.37;57.13;100201.78;4993705;28;1169;-59
2022/10/02 10:15:32;;;;;;;;;;;;;;;16.80;58.16;100217.19;5011537;28;1181;-59
2022/10/02 10:18:04;;;;;;;;;;;;;;;16.60;58.06;100221.75;5018622;28;1260;-58
2022/10/02 10:20:29;;;;;;;;;;;;;;;16.56;57.79;100209.69;4993150;28;1963;-59
2022/10/02 10:23:35;;;;;;;;;;;;;;;16.51;57.66;100210.56;5009127;28;1233;-58
2022/10/02 10:26:11;;;;;;;;;;;;;;;16.42;57.46;100207.63;4929229;29;1404;-59
2022/10/02 10:28:42;;;;;;;;;;;;;;;16.34;57.66;100212.88;4939023;29;1702;-58
2022/10/02 10:31:34;;;;;;;;;;;;;;;16.35;57.48;100214.53;4985486;28;1448;-57
2022/10/02 10:34:11;;;;;;;;;;;;;;;16.29;57.47;100216.47;5002623;28;1194;-57
2022/10/02 10:39:28;;;;;;;;;;;;;;;16.25;57.41;100238.16;5013975;28;1209;-56
2022/10/02 10:42:16;;;;;;;;;;;;;;;16.22;57.33;100246.16;5014251;28;1906;-57
2022/10/02 10:45:01;;;;;;;;;;;;;;;16.21;57.23;100245.31;5009683;28;1382;-56
2022/10/02 10:47:29;;;;;;;;;;;;;;;16.17;57.11;100262.66;5013349;28;1137;-57
2022/10/02 10:50:04;;;;;;;;;;;;;;;17.02;57.25;100263.41;5011375;28;1234;-56
2022/10/02 10:52:29;;;;;;;;;;;;;;;17.08;57.77;100273.25;5009419;28;1292;-56
2022/10/02 10:55:15;;;;;;;;;;;;;;;16.66;58.42;100269.19;5013920;28;1183;-57
2022/10/02 10:57:52;;;;;;;;;;;;;;;16.54;58.13;100267.63;5011502;28;1220;-57
2022/10/02 11:00:22;;;;;;;;;;;;;;;16.49;57.64;100258.59;5016635;28;1909;-57
2022/10/02 11:02:54;;;;;;;;;;;;;;;16.43;57.56;100272.34;5014679;28;1261;-54
2022/10/02 11:05:25;;;;;;;;;;;;;;;16.37;57.38;100265.28;5011063;28;1243;-57
2022/10/02 11:08:09;;;;;;;;;;;;;;;16.35;57.40;100261.97;5008149;28;1207;-59
2022/10/02 11:10:53;;;;;;;;;;;;;;;16.27;57.52;100262.59;5010339;28;1164;-58
2022/10/02 11:13:19;;;;;;;;;;;;;;;16.25;57.00;100264.78;5013446;28;973;-58
2022/10/02 11:15:58;;;;;;;;;;;;;;;16.22;57.25;100265.38;5014044;28;1239;-57
2022/10/02 11:18:33;;;;;;;;;;;;;;;16.22;56.94;100273.59;5007876;28;1216;-59
2022/10/02 11:20:59;;;;;;;;;;;;;;;16.21;57.04;100264.53;5008741;28;1974;-59
2022/10/02 11:23:43;;;;;;;;;;;;;;;16.16;56.81;100261.84;5007921;28;1230;-57
2022/10/02 11:26:25;;;;;;;;;;;;;;;17.42;56.71;100255.88;5009658;28;1173;-57
2022/10/02 11:29:02;;;;;;;;;;;;;;;16.88;57.91;100260.50;5008993;28;1257;-57
2022/10/02 11:31:38;;;;;;;;;;;;;;;16.64;58.19;100277.69;5012555;28;1296;-58
2022/10/02 11:34:11;;;;;;;;;;;;;;;16.53;57.83;100284.38;5010264;28;1239;-58
2022/10/02 11:36:55;;;;;;;;;;;;;;;16.47;57.70;100269.88;5008026;28;1224;-56
2022/10/02 11:39:33;;;;;;;;;;;;;;;16.37;57.65;100281.72;5009516;28;1041;-58
2022/10/02 11:42:04;;;;;;;;;;;;;;;16.35;57.44;100272.94;5008155;28;1910;-56
2022/10/02 11:44:45;;;;;;;;;;;;;;;16.30;57.34;100267.50;5012351;28;1267;-56
2022/10/02 11:47:26;;;;;;;;;;;;;;;16.24;57.27;100272.22;5015377;28;1314;-57
2022/10/02 11:50:00;;;;;;;;;;;;;;;16.24;57.18;100274.97;5012635;28;1116;-56
2022/10/02 11:52:27;;;;;;;;;;;;;;;16.24;57.08;100263.16;5011658;28;1254;-58
2022/10/02 11:54:53;;;;;;;;;;;;;;;16.18;57.08;100264.28;5014102;28;1267;-56
2022/10/02 11:57:37;;;;;;;;;;;;;;;16.15;56.87;100276.66;5012603;28;1207;-58
2022/10/02 12:00:14;;;;;;;;;;;;;;;16.67;57.48;100277.13;5011417;28;1910;-58
2022/10/02 12:02:40;;;;;;;;;;;;;;;17.54;56.97;100280.19;5005514;28;1181;-58
2022/10/02 12:05:07;;;;;;;;;;;;;;;16.89;58.07;100275.91;5009682;28;1224;-59
2022/10/02 12:07:43;;;;;;;;;;;;;;;16.67;58.17;100285.34;5009401;28;1203;-57
2022/10/02 12:10:14;;;;;;;;;;;;;;;16.57;57.56;100294.50;5015063;28;1168;-58
2022/10/02 12:12:43;;;;;;;;;;;;;;;16.54;57.66;100299.75;5017714;28;1272;-58
2022/10/02 12:15:20;;;;;;;;;;;;;;;16.45;57.61;100296.75;5016553;28;1132;-59
2022/10/02 12:17:54;;;;;;;;;;;;;;;16.38;57.66;100299.84;5016529;28;1099;-59
2022/10/02 12:29:18;;;;;;;;;;;;;;;16.18;57.35;100297.22;5006749;28;1109;-59
2022/10/02 12:31:49;;;;;;;;;;;;;;;16.14;57.33;100301.63;4989697;28;1209;-58
2022/10/02 12:34:30;;;;;;;;;;;;;;;16.16;56.84;100299.41;5014313;28;1039;-59
2022/10/02 12:36:59;;;;;;;;;;;;;;;16.16;56.78;100299.41;5017427;28;1136;-59
2022/10/02 12:39:33;;;;;;;;;;;;;;;17.21;57.00;100326.72;5016782;28;1207;-58
2022/10/02 12:42:10;;;;;;;;;;;;;;;17.03;57.80;100312.56;5015223;28;1982;-59
2022/10/02 12:44:45;;;;;;;;;;;;;;;16.62;58.23;100310.13;5016872;28;1148;-58
2022/10/02 12:47:13;;;;;;;;;;;;;;;16.55;57.67;100317.84;5016692;28;1156;-58
2022/10/02 12:49:45;;;;;;;;;;;;;;;16.42;57.84;100328.38;5016866;28;1002;-58
2022/10/02 12:52:27;;;;;;;;;;;;;;;16.36;57.51;100317.69;5015301;28;870;-58
2022/10/02 12:55:01;;;;;;;;;;;;;;;16.35;57.33;100330.56;5014918;28;1370;-56
2022/10/02 12:57:52;;;;;;;;;;;;;;;16.30;57.12;100338.84;5016440;28;1113;-56
2022/10/02 13:00:37;;;;;;;;;;;;;;;16.21;57.02;100329.56;5016145;28;1902;-57
2022/10/02 13:03:09;;;;;;;;;;;;;;;16.18;57.26;100338.34;4959559;28;1175;-54
2022/10/02 13:06:02;;;;;;;;;;;;;;;16.22;56.83;100331.22;5015368;28;1348;-57
2022/10/02 13:08:47;;;;;;;;;;;;;;;16.12;57.16;100321.09;5012351;28;1130;-58
2022/10/02 13:11:21;;;;;;;;;;;;;;;16.11;56.93;100335.91;5003138;28;1133;-57
2022/10/02 13:14:05;;;;;;;;;;;;;;;16.11;56.74;100338.66;5016338;28;1199;-57
2022/10/02 13:16:34;;;;;;;;;;;;;;;17.00;57.26;100345.28;5016195;28;906;-57
2022/10/02 13:19:02;;;;;;;;;;;;;;;17.24;57.16;100356.34;5016444;28;1160;-58
2022/10/02 13:21:38;;;;;;;;;;;;;;;16.71;57.95;100349.56;5016645;28;1906;-58
2022/10/02 13:24:15;;;;;;;;;;;;;;;16.54;58.17;100351.91;5015488;28;1251;-56
2022/10/02 13:27:01;;;;;;;;;;;;;;;16.49;57.49;100362.91;5016141;28;1101;-57
2022/10/02 13:29:29;;;;;;;;;;;;;;;16.39;57.51;100350.06;5012313;28;1274;-57
2022/10/02 13:31:58;;;;;;;;;;;;;;;16.35;57.45;100366.25;5016084;28;927;-59